CSAV Lonquen — A8OT2 — position and weather

sailwx.info

Track history (hours):
 
Tides and Currents Weather Stations Pressure Air Temp Water Temp Dewpoint Dewpoint Depression Visibility Wind Speed Wind Dir Waves Ship Positions

CSAV Lonquen

Last reported at 2016-Jul-30 02:32 UTC. Time now 2016-Jul-30 03:36 UTC.
Position N 34°40' E 033°04'.

Length 261 m; draft 9.7 m.

Type: Ship (hazmat cat A). MMSI: 636091501.

Date/timePositionNaut miles runAvg speedWind from/ knotsBaromVisibWave heightAir tempDewpointWater temp
2016-Jul-30 02:32N 34°40' E 033°04'0 0.1
2016-Jul-30 01:32N 34°40' E 033°04'0 0.1
2016-Jul-30 00:32N 34°40' E 033°04'0 0.1
2016-Jul-29 23:32N 34°40' E 033°04'0 0.0
2016-Jul-29 22:32N 34°40' E 033°04'0 0.0
2016-Jul-29 21:32N 34°40' E 033°04'0 0.1
2016-Jul-29 20:32N 34°40' E 033°04'0 0.0
2016-Jul-29 16:32N 34°40' E 033°04'0 0.0
2016-Jul-29 15:08N 34°40' E 033°04'0 0.0
2016-Jul-29 14:26N 34°40' E 033°04'2 2.3
2016-Jul-29 13:29N 34°38' E 033°04'1212.5
2016-Jul-29 12:34N 34°27' E 033°10'1514.2
2016-Jul-29 11:31N 34°14' E 033°18'1414.4
2016-Jul-29 10:33N 34°01' E 033°25'1514.6
2016-Jul-29 09:33N 33°48' E 033°33'1815.2
2016-Jul-29 08:23N 33°32' E 033°43'1214.3
2016-Jul-29 07:33N 33°22' E 033°49'1313.4
2016-Jul-29 06:33N 33°10' E 033°56'5213.1
2016-Jul-29 02:34N 32°53' E 034°55'6 6.2
2016-Jul-29 01:33N 32°49' E 035°01'0 0.0
2016-Jul-29 00:33N 32°49' E 035°01'0 0.0
2016-Jul-28 23:33N 32°49' E 035°01'0 0.0
2016-Jul-28 22:33N 32°49' E 035°01'0 0.0
2016-Jul-28 21:33N 32°49' E 035°01'0 0.0
2016-Jul-28 20:33N 32°49' E 035°01'0 0.0
2016-Jul-28 19:33N 32°49' E 035°01'0 0.0
2016-Jul-28 18:33N 32°49' E 035°01'0 0.0
2016-Jul-28 17:33N 32°49' E 035°01'0 0.0
2016-Jul-28 16:33N 32°49' E 035°01'0 0.0
2016-Jul-28 15:33N 32°49' E 035°01'0 0.0
2016-Jul-28 14:30N 32°49' E 035°01'0 0.0
2016-Jul-28 13:33N 32°49' E 035°01'0 0.0
2016-Jul-28 12:33N 32°49' E 035°01'0 0.0
2016-Jul-28 11:33N 32°49' E 035°01'0 0.0
2016-Jul-28 10:33N 32°49' E 035°01'0 0.0
2016-Jul-28 09:33N 32°49' E 035°01'0 0.0
2016-Jul-28 08:33N 32°49' E 035°01'5 4.6
2016-Jul-28 07:33N 32°53' E 034°58'1 0.7
2016-Jul-28 06:34N 32°52' E 034°58'1010.1
2016-Jul-28 05:33N 32°47' E 034°48'1716.8
2016-Jul-28 04:33N 32°31' E 034°42'1716.8
2016-Jul-28 03:33N 32°15' E 034°37'23 0.9
2016-Jul-27 01:33N 31°52' E 034°34'1010.4
2016-Jul-27 00:33N 31°55' E 034°22'1616.4
2016-Jul-26 23:33N 32°02' E 034°05'1616.1
2016-Jul-26 22:34N 32°09' E 033°48'1616.2
2016-Jul-26 21:34N 32°13' E 033°29'1616.2
2016-Jul-26 20:33N 32°18' E 033°11'1716.4
2016-Jul-26 19:31N 32°22' E 032°51'1616.5
2016-Jul-26 18:33N 32°27' E 032°33'1716.8
2016-Jul-26 17:34N 32°32' E 032°14'1816.8
2016-Jul-26 16:30N 32°37' E 031°54'1717.9
2016-Jul-26 15:32N 32°42' E 031°35'1818.3
2016-Jul-26 14:34N 32°47' E 031°14'1918.6
2016-Jul-26 13:34N 32°52' E 030°53'1918.8
2016-Jul-26 12:33N 32°58' E 030°31'2418.9
2016-Jul-26 11:16N 33°04' E 030°04'75418.5
2016-Jul-24 18:28N 36°21' E 015°18'1718.6
2016-Jul-24 17:31N 36°25' E 014°57'1818.5
2016-Jul-24 16:33N 36°30' E 014°36'1918.7
2016-Jul-24 15:33N 36°34' E 014°13'2019.5
2016-Jul-24 14:33N 36°39' E 013°50'1919.2
2016-Jul-24 13:33N 36°43' E 013°26'1919.2
2016-Jul-24 12:33N 36°48' E 013°03'1918.7
2016-Jul-24 11:33N 36°53' E 012°40'52818.2
2016-Jul-23 06:30N 36°50' E 001°41'3718.9
2016-Jul-23 04:33N 36°45' E 000°55'7518.4
2016-Jul-23 00:26N 36°34' W 000°38'8717.8
2016-Jul-22 19:33N 36°21' W 002°25'1818.4
2016-Jul-22 18:33N 36°18' W 002°47'12019.2
2016-Jul-22 12:20N 36°01' W 005°14'21017.8
2016-Jul-22 00:33N 36°44' W 009°29'3718.6
2016-Jul-21 22:33N 37°20' W 009°43'2319.1
2016-Jul-21 21:19N 37°43' W 009°49'1418.4
2016-Jul-21 20:33N 37°57' W 009°53'1919.0
2016-Jul-21 19:33N 38°15' W 009°59'1919.4
2016-Jul-21 18:33N 38°34' W 010°04'1919.1
2016-Jul-21 17:33N 38°53' W 010°06'1919.1
2016-Jul-21 16:33N 39°12' W 010°06'5818.9
2016-Jul-21 13:27N 40°10' W 010°06'54318.6
2016-Jul-20 08:14N 48°43' W 005°59'1319.2
2016-Jul-20 07:33N 48°54' W 005°47'6415.3
2016-Jul-20 03:24N 49°26' W 004°24'1315.5
2016-Jul-20 02:34N 49°32' W 004°06'  
Track history (hours):
 
Tides and Currents Weather Stations Pressure Air Temp Water Temp Dewpoint Dewpoint Depression Visibility Wind Speed Wind Dir Waves Ship Positions

CSAV Lonquen

Last reported at 2016-Jul-30 02:32 UTC. Time now 2016-Jul-30 03:36 UTC.
Position N 34°40' E 033°04'.

Length 261 m; draft 9.7 m.

Type: Ship (hazmat cat A). MMSI: 636091501.

Date/timePositionNaut miles runAvg speedWind from/ knotsBaromVisibWave heightAir tempDewpointWater temp
2016-Jul-30 02:32N 34°40' E 033°04'0 0.1
2016-Jul-30 01:32N 34°40' E 033°04'0 0.1
2016-Jul-30 00:32N 34°40' E 033°04'0 0.1
2016-Jul-29 23:32N 34°40' E 033°04'0 0.0
2016-Jul-29 22:32N 34°40' E 033°04'0 0.0
2016-Jul-29 21:32N 34°40' E 033°04'0 0.1
2016-Jul-29 20:32N 34°40' E 033°04'0 0.0
2016-Jul-29 16:32N 34°40' E 033°04'0 0.0
2016-Jul-29 15:08N 34°40' E 033°04'0 0.0
2016-Jul-29 14:26N 34°40' E 033°04'2 2.3
2016-Jul-29 13:29N 34°38' E 033°04'1212.5
2016-Jul-29 12:34N 34°27' E 033°10'1514.2
2016-Jul-29 11:31N 34°14' E 033°18'1414.4
2016-Jul-29 10:33N 34°01' E 033°25'1514.6
2016-Jul-29 09:33N 33°48' E 033°33'1815.2
2016-Jul-29 08:23N 33°32' E 033°43'1214.3
2016-Jul-29 07:33N 33°22' E 033°49'1313.4
2016-Jul-29 06:33N 33°10' E 033°56'5213.1
2016-Jul-29 02:34N 32°53' E 034°55'6 6.2
2016-Jul-29 01:33N 32°49' E 035°01'0 0.0
2016-Jul-29 00:33N 32°49' E 035°01'0 0.0
2016-Jul-28 23:33N 32°49' E 035°01'0 0.0
2016-Jul-28 22:33N 32°49' E 035°01'0 0.0
2016-Jul-28 21:33N 32°49' E 035°01'0 0.0
2016-Jul-28 20:33N 32°49' E 035°01'0 0.0
2016-Jul-28 19:33N 32°49' E 035°01'0 0.0
2016-Jul-28 18:33N 32°49' E 035°01'0 0.0
2016-Jul-28 17:33N 32°49' E 035°01'0 0.0
2016-Jul-28 16:33N 32°49' E 035°01'0 0.0
2016-Jul-28 15:33N 32°49' E 035°01'0 0.0
2016-Jul-28 14:30N 32°49' E 035°01'0 0.0
2016-Jul-28 13:33N 32°49' E 035°01'0 0.0
2016-Jul-28 12:33N 32°49' E 035°01'0 0.0
2016-Jul-28 11:33N 32°49' E 035°01'0 0.0
2016-Jul-28 10:33N 32°49' E 035°01'0 0.0
2016-Jul-28 09:33N 32°49' E 035°01'0 0.0
2016-Jul-28 08:33N 32°49' E 035°01'5 4.6
2016-Jul-28 07:33N 32°53' E 034°58'1 0.7
2016-Jul-28 06:34N 32°52' E 034°58'1010.1
2016-Jul-28 05:33N 32°47' E 034°48'1716.8
2016-Jul-28 04:33N 32°31' E 034°42'1716.8
2016-Jul-28 03:33N 32°15' E 034°37'23 0.9
2016-Jul-27 01:33N 31°52' E 034°34'1010.4
2016-Jul-27 00:33N 31°55' E 034°22'1616.4
2016-Jul-26 23:33N 32°02' E 034°05'1616.1
2016-Jul-26 22:34N 32°09' E 033°48'1616.2
2016-Jul-26 21:34N 32°13' E 033°29'1616.2
2016-Jul-26 20:33N 32°18' E 033°11'1716.4
2016-Jul-26 19:31N 32°22' E 032°51'1616.5
2016-Jul-26 18:33N 32°27' E 032°33'1716.8
2016-Jul-26 17:34N 32°32' E 032°14'1816.8
2016-Jul-26 16:30N 32°37' E 031°54'1717.9
2016-Jul-26 15:32N 32°42' E 031°35'1818.3
2016-Jul-26 14:34N 32°47' E 031°14'1918.6
2016-Jul-26 13:34N 32°52' E 030°53'1918.8
2016-Jul-26 12:33N 32°58' E 030°31'2418.9
2016-Jul-26 11:16N 33°04' E 030°04'75418.5
2016-Jul-24 18:28N 36°21' E 015°18'1718.6
2016-Jul-24 17:31N 36°25' E 014°57'1818.5
2016-Jul-24 16:33N 36°30' E 014°36'1918.7
2016-Jul-24 15:33N 36°34' E 014°13'2019.5
2016-Jul-24 14:33N 36°39' E 013°50'1919.2
2016-Jul-24 13:33N 36°43' E 013°26'1919.2
2016-Jul-24 12:33N 36°48' E 013°03'1918.7
2016-Jul-24 11:33N 36°53' E 012°40'52818.2
2016-Jul-23 06:30N 36°50' E 001°41'3718.9
2016-Jul-23 04:33N 36°45' E 000°55'7518.4
2016-Jul-23 00:26N 36°34' W 000°38'8717.8
2016-Jul-22 19:33N 36°21' W 002°25'1818.4
2016-Jul-22 18:33N 36°18' W 002°47'12019.2
2016-Jul-22 12:20N 36°01' W 005°14'21017.8
2016-Jul-22 00:33N 36°44' W 009°29'3718.6
2016-Jul-21 22:33N 37°20' W 009°43'2319.1
2016-Jul-21 21:19N 37°43' W 009°49'1418.4
2016-Jul-21 20:33N 37°57' W 009°53'1919.0
2016-Jul-21 19:33N 38°15' W 009°59'1919.4
2016-Jul-21 18:33N 38°34' W 010°04'1919.1
2016-Jul-21 17:33N 38°53' W 010°06'1919.1
2016-Jul-21 16:33N 39°12' W 010°06'5818.9
2016-Jul-21 13:27N 40°10' W 010°06'54318.6
2016-Jul-20 08:14N 48°43' W 005°59'1319.2
2016-Jul-20 07:33N 48°54' W 005°47'6415.3
2016-Jul-20 03:24N 49°26' W 004°24'1315.5
2016-Jul-20 02:34N 49°32' W 004°06'  

Dump ship's entire track history